sensor_id;sensor_type;location;lat;lon;timestamp;P1;durP1;ratioP1;P2;durP2;ratioP2
5606;SDS011;2825;53.116;9.392;2022-09-27T00:01:00;2.30;;;2.10;;
5606;SDS011;2825;53.116;9.392;2022-09-27T00:03:27;2.10;;;1.80;;
5606;SDS011;2825;53.116;9.392;2022-09-27T00:06:01;2.20;;;2.00;;
5606;SDS011;2825;53.116;9.392;2022-09-27T00:08:28;2.70;;;2.50;;
5606;SDS011;2825;53.116;9.392;2022-09-27T00:10:57;2.33;;;1.83;;
5606;SDS011;2825;53.116;9.392;2022-09-27T00:13:27;5.43;;;1.87;;
5606;SDS011;2825;53.116;9.392;2022-09-27T00:15:59;3.47;;;2.23;;
5606;SDS011;2825;53.116;9.392;2022-09-27T00:18:28;2.37;;;2.17;;
5606;SDS011;2825;53.116;9.392;2022-09-27T00:20:55;2.57;;;2.37;;
5606;SDS011;2825;53.116;9.392;2022-09-27T00:23:20;1.90;;;1.80;;
5606;SDS011;2825;53.116;9.392;2022-09-27T00:25:56;1.97;;;1.87;;
5606;SDS011;2825;53.116;9.392;2022-09-27T00:28:23;2.50;;;2.17;;
5606;SDS011;2825;53.116;9.392;2022-09-27T00:30:49;2.13;;;1.90;;
5606;SDS011;2825;53.116;9.392;2022-09-27T00:33:15;2.10;;;1.90;;
5606;SDS011;2825;53.116;9.392;2022-09-27T00:35:40;3.30;;;3.00;;
5606;SDS011;2825;53.116;9.392;2022-09-27T00:38:06;2.47;;;2.30;;
5606;SDS011;2825;53.116;9.392;2022-09-27T00:40:32;6.80;;;2.37;;
5606;SDS011;2825;53.116;9.392;2022-09-27T00:42:58;3.23;;;2.50;;
5606;SDS011;2825;53.116;9.392;2022-09-27T00:45:24;4.83;;;2.63;;
5606;SDS011;2825;53.116;9.392;2022-09-27T00:47:51;1.87;;;1.77;;
5606;SDS011;2825;53.116;9.392;2022-09-27T00:50:25;4.67;;;1.97;;
5606;SDS011;2825;53.116;9.392;2022-09-27T00:53:07;2.30;;;2.10;;
5606;SDS011;2825;53.116;9.392;2022-09-27T00:55:48;1.93;;;1.77;;
5606;SDS011;2825;53.116;9.392;2022-09-27T00:58:28;5.63;;;2.13;;
5606;SDS011;2825;53.116;9.392;2022-09-27T01:01:01;2.97;;;2.77;;
5606;SDS011;2825;53.116;9.392;2022-09-27T01:03:35;2.60;;;2.40;;
5606;SDS011;2825;53.116;9.392;2022-09-27T01:06:22;3.90;;;3.00;;
5606;SDS011;2825;53.116;9.392;2022-09-27T01:08:48;3.73;;;2.37;;
5606;SDS011;2825;53.116;9.392;2022-09-27T01:11:47;2.90;;;2.60;;
5606;SDS011;2825;53.116;9.392;2022-09-27T01:14:23;3.03;;;2.73;;
5606;SDS011;2825;53.116;9.392;2022-09-27T01:23:05;3.17;;;2.90;;
5606;SDS011;2825;53.116;9.392;2022-09-27T01:28:09;4.37;;;3.50;;
5606;SDS011;2825;53.116;9.392;2022-09-27T01:33:39;4.03;;;3.63;;
5606;SDS011;2825;53.116;9.392;2022-09-27T01:36:14;4.50;;;4.10;;
5606;SDS011;2825;53.116;9.392;2022-09-27T01:44:59;3.97;;;3.67;;
5606;SDS011;2825;53.116;9.392;2022-09-27T01:47:25;3.83;;;3.53;;
5606;SDS011;2825;53.116;9.392;2022-09-27T01:50:05;4.10;;;3.70;;
5606;SDS011;2825;53.116;9.392;2022-09-27T01:52:40;4.70;;;4.30;;
5606;SDS011;2825;53.116;9.392;2022-09-27T01:55:20;4.67;;;3.97;;
5606;SDS011;2825;53.116;9.392;2022-09-27T01:57:54;4.20;;;3.90;;
5606;SDS011;2825;53.116;9.392;2022-09-27T02:00:34;4.80;;;4.40;;
5606;SDS011;2825;53.116;9.392;2022-09-27T02:03:12;5.10;;;4.70;;
5606;SDS011;2825;53.116;9.392;2022-09-27T02:05:43;4.60;;;4.20;;
5606;SDS011;2825;53.116;9.392;2022-09-27T02:08:13;6.53;;;4.70;;
5606;SDS011;2825;53.116;9.392;2022-09-27T02:10:43;5.07;;;4.67;;
5606;SDS011;2825;53.116;9.392;2022-09-27T02:13:23;5.10;;;4.70;;
5606;SDS011;2825;53.116;9.392;2022-09-27T02:19:09;5.53;;;5.00;;
5606;SDS011;2825;53.116;9.392;2022-09-27T02:22:16;6.33;;;5.63;;
5606;SDS011;2825;53.116;9.392;2022-09-27T02:25:13;6.43;;;5.83;;
5606;SDS011;2825;53.116;9.392;2022-09-27T02:31:00;5.63;;;5.07;;
5606;SDS011;2825;53.116;9.392;2022-09-27T02:33:30;6.80;;;6.20;;
5606;SDS011;2825;53.116;9.392;2022-09-27T02:36:21;7.67;;;6.30;;
5606;SDS011;2825;53.116;9.392;2022-09-27T02:38:47;6.80;;;6.20;;
5606;SDS011;2825;53.116;9.392;2022-09-27T02:41:13;6.83;;;6.23;;
5606;SDS011;2825;53.116;9.392;2022-09-27T02:43:40;6.33;;;5.83;;
5606;SDS011;2825;53.116;9.392;2022-09-27T02:52:37;8.33;;;7.23;;
5606;SDS011;2825;53.116;9.392;2022-09-27T03:00:31;9.77;;;8.60;;
5606;SDS011;2825;53.116;9.392;2022-09-27T03:03:13;9.50;;;8.50;;
5606;SDS011;2825;53.116;9.392;2022-09-27T03:05:48;11.30;;;8.40;;
5606;SDS011;2825;53.116;9.392;2022-09-27T03:08:23;10.37;;;7.70;;
5606;SDS011;2825;53.116;9.392;2022-09-27T03:10:49;9.90;;;8.50;;
5606;SDS011;2825;53.116;9.392;2022-09-27T03:13:15;9.87;;;8.87;;
5606;SDS011;2825;53.116;9.392;2022-09-27T03:15:40;9.77;;;8.50;;
5606;SDS011;2825;53.116;9.392;2022-09-27T03:18:06;12.37;;;9.73;;
5606;SDS011;2825;53.116;9.392;2022-09-27T03:20:32;10.87;;;9.10;;
5606;SDS011;2825;53.116;9.392;2022-09-27T03:22:58;9.80;;;8.73;;
5606;SDS011;2825;53.116;9.392;2022-09-27T03:25:24;10.60;;;9.50;;
5606;SDS011;2825;53.116;9.392;2022-09-27T03:27:50;10.53;;;9.53;;
5606;SDS011;2825;53.116;9.392;2022-09-27T03:30:16;12.83;;;10.40;;
5606;SDS011;2825;53.116;9.392;2022-09-27T03:32:42;15.50;;;10.13;;
5606;SDS011;2825;53.116;9.392;2022-09-27T03:35:09;13.37;;;10.90;;
5606;SDS011;2825;53.116;9.392;2022-09-27T03:37:35;16.27;;;10.67;;
5606;SDS011;2825;53.116;9.392;2022-09-27T03:40:01;12.37;;;11.17;;
5606;SDS011;2825;53.116;9.392;2022-09-27T03:42:26;20.63;;;11.60;;
5606;SDS011;2825;53.116;9.392;2022-09-27T03:44:52;18.13;;;13.17;;
5606;SDS011;2825;53.116;9.392;2022-09-27T03:47:18;12.30;;;10.83;;
5606;SDS011;2825;53.116;9.392;2022-09-27T03:49:43;17.13;;;11.70;;
5606;SDS011;2825;53.116;9.392;2022-09-27T03:52:09;14.27;;;12.70;;
5606;SDS011;2825;53.116;9.392;2022-09-27T03:54:35;16.03;;;12.50;;
5606;SDS011;2825;53.116;9.392;2022-09-27T03:57:00;13.73;;;11.33;;
5606;SDS011;2825;53.116;9.392;2022-09-27T03:59:26;13.07;;;9.90;;
5606;SDS011;2825;53.116;9.392;2022-09-27T04:01:52;15.07;;;11.47;;
5606;SDS011;2825;53.116;9.392;2022-09-27T04:04:17;16.93;;;11.37;;
5606;SDS011;2825;53.116;9.392;2022-09-27T04:06:43;19.13;;;13.60;;
5606;SDS011;2825;53.116;9.392;2022-09-27T04:09:08;18.33;;;12.83;;
5606;SDS011;2825;53.116;9.392;2022-09-27T04:11:34;12.93;;;11.43;;
5606;SDS011;2825;53.116;9.392;2022-09-27T04:14:00;15.03;;;11.43;;
5606;SDS011;2825;53.116;9.392;2022-09-27T04:16:26;15.50;;;11.80;;
5606;SDS011;2825;53.116;9.392;2022-09-27T04:18:51;16.47;;;11.87;;
5606;SDS011;2825;53.116;9.392;2022-09-27T04:21:17;16.30;;;13.17;;
5606;SDS011;2825;53.116;9.392;2022-09-27T04:23:44;14.50;;;12.10;;
5606;SDS011;2825;53.116;9.392;2022-09-27T04:26:10;15.83;;;10.00;;
5606;SDS011;2825;53.116;9.392;2022-09-27T04:28:37;11.97;;;9.87;;
5606;SDS011;2825;53.116;9.392;2022-09-27T04:31:04;10.00;;;8.73;;
5606;SDS011;2825;53.116;9.392;2022-09-27T04:33:30;11.00;;;9.53;;
5606;SDS011;2825;53.116;9.392;2022-09-27T04:35:56;12.97;;;9.43;;
5606;SDS011;2825;53.116;9.392;2022-09-27T04:38:40;11.80;;;7.90;;
5606;SDS011;2825;53.116;9.392;2022-09-27T04:41:06;13.57;;;9.77;;
5606;SDS011;2825;53.116;9.392;2022-09-27T04:43:32;9.67;;;8.67;;
5606;SDS011;2825;53.116;9.392;2022-09-27T04:45:57;9.47;;;8.47;;
5606;SDS011;2825;53.116;9.392;2022-09-27T04:48:23;9.53;;;8.60;;
5606;SDS011;2825;53.116;9.392;2022-09-27T04:50:59;10.07;;;8.43;;
5606;SDS011;2825;53.116;9.392;2022-09-27T04:53:29;10.10;;;9.00;;
5606;SDS011;2825;53.116;9.392;2022-09-27T04:55:55;12.57;;;9.00;;
5606;SDS011;2825;53.116;9.392;2022-09-27T04:58:21;11.20;;;10.10;;
5606;SDS011;2825;53.116;9.392;2022-09-27T05:00:47;11.13;;;9.60;;
5606;SDS011;2825;53.116;9.392;2022-09-27T05:03:16;12.30;;;10.03;;
5606;SDS011;2825;53.116;9.392;2022-09-27T05:05:43;15.03;;;10.60;;
5606;SDS011;2825;53.116;9.392;2022-09-27T05:08:09;14.40;;;10.60;;
5606;SDS011;2825;53.116;9.392;2022-09-27T05:10:35;14.30;;;10.73;;
5606;SDS011;2825;53.116;9.392;2022-09-27T05:13:01;10.77;;;9.67;;
5606;SDS011;2825;53.116;9.392;2022-09-27T05:15:27;12.33;;;10.37;;
5606;SDS011;2825;53.116;9.392;2022-09-27T05:17:52;13.37;;;9.90;;
5606;SDS011;2825;53.116;9.392;2022-09-27T05:20:18;13.70;;;9.90;;
5606;SDS011;2825;53.116;9.392;2022-09-27T05:22:44;15.03;;;10.60;;
5606;SDS011;2825;53.116;9.392;2022-09-27T05:25:10;13.33;;;9.60;;
5606;SDS011;2825;53.116;9.392;2022-09-27T05:27:36;11.60;;;8.60;;
5606;SDS011;2825;53.116;9.392;2022-09-27T05:30:02;9.63;;;8.17;;
5606;SDS011;2825;53.116;9.392;2022-09-27T05:32:29;9.17;;;8.27;;
5606;SDS011;2825;53.116;9.392;2022-09-27T05:34:55;8.03;;;6.70;;
5606;SDS011;2825;53.116;9.392;2022-09-27T05:37:21;8.00;;;7.20;;
5606;SDS011;2825;53.116;9.392;2022-09-27T05:39:46;7.93;;;6.13;;
5606;SDS011;2825;53.116;9.392;2022-09-27T05:42:14;8.87;;;6.13;;
5606;SDS011;2825;53.116;9.392;2022-09-27T05:44:40;5.83;;;5.20;;
5606;SDS011;2825;53.116;9.392;2022-09-27T05:47:06;8.40;;;5.90;;
5606;SDS011;2825;53.116;9.392;2022-09-27T05:49:32;7.70;;;5.80;;
5606;SDS011;2825;53.116;9.392;2022-09-27T05:51:58;8.00;;;5.10;;
5606;SDS011;2825;53.116;9.392;2022-09-27T05:54:24;5.87;;;5.27;;
5606;SDS011;2825;53.116;9.392;2022-09-27T05:56:54;6.77;;;5.80;;
5606;SDS011;2825;53.116;9.392;2022-09-27T05:59:24;7.40;;;5.87;;
5606;SDS011;2825;53.116;9.392;2022-09-27T06:01:51;6.27;;;5.67;;
5606;SDS011;2825;53.116;9.392;2022-09-27T06:04:17;6.40;;;5.80;;
5606;SDS011;2825;53.116;9.392;2022-09-27T06:06:44;6.03;;;5.40;;
5606;SDS011;2825;53.116;9.392;2022-09-27T06:09:10;6.87;;;5.30;;
5606;SDS011;2825;53.116;9.392;2022-09-27T06:11:36;5.43;;;4.93;;
5606;SDS011;2825;53.116;9.392;2022-09-27T06:14:02;6.80;;;6.10;;
5606;SDS011;2825;53.116;9.392;2022-09-27T06:16:29;8.03;;;5.13;;
5606;SDS011;2825;53.116;9.392;2022-09-27T06:18:54;5.40;;;4.90;;
5606;SDS011;2825;53.116;9.392;2022-09-27T06:21:22;7.27;;;4.90;;
5606;SDS011;2825;53.116;9.392;2022-09-27T06:23:48;8.07;;;5.37;;
5606;SDS011;2825;53.116;9.392;2022-09-27T06:26:14;7.13;;;6.43;;
5606;SDS011;2825;53.116;9.392;2022-09-27T06:28:40;6.23;;;5.73;;
5606;SDS011;2825;53.116;9.392;2022-09-27T06:31:06;12.50;;;6.00;;
5606;SDS011;2825;53.116;9.392;2022-09-27T06:33:33;8.13;;;5.83;;
5606;SDS011;2825;53.116;9.392;2022-09-27T06:36:03;7.43;;;6.60;;
5606;SDS011;2825;53.116;9.392;2022-09-27T06:38:30;6.87;;;6.13;;
5606;SDS011;2825;53.116;9.392;2022-09-27T06:40:59;10.00;;;6.30;;
5606;SDS011;2825;53.116;9.392;2022-09-27T06:43:26;9.47;;;6.40;;
5606;SDS011;2825;53.116;9.392;2022-09-27T06:45:52;7.13;;;5.73;;
5606;SDS011;2825;53.116;9.392;2022-09-27T06:48:18;9.13;;;6.50;;
5606;SDS011;2825;53.116;9.392;2022-09-27T06:50:45;8.10;;;6.63;;
5606;SDS011;2825;53.116;9.392;2022-09-27T06:53:13;10.53;;;7.67;;
5606;SDS011;2825;53.116;9.392;2022-09-27T06:55:40;10.87;;;7.13;;
5606;SDS011;2825;53.116;9.392;2022-09-27T06:58:08;18.77;;;6.77;;
5606;SDS011;2825;53.116;9.392;2022-09-27T07:00:53;11.43;;;6.60;;
5606;SDS011;2825;53.116;9.392;2022-09-27T07:03:20;9.73;;;7.07;;
5606;SDS011;2825;53.116;9.392;2022-09-27T07:05:53;6.93;;;5.30;;
5606;SDS011;2825;53.116;9.392;2022-09-27T07:08:21;7.27;;;5.60;;
5606;SDS011;2825;53.116;9.392;2022-09-27T07:10:49;5.47;;;4.83;;
5606;SDS011;2825;53.116;9.392;2022-09-27T07:13:14;6.07;;;5.47;;
5606;SDS011;2825;53.116;9.392;2022-09-27T07:15:40;5.97;;;5.20;;
5606;SDS011;2825;53.116;9.392;2022-09-27T07:18:06;6.10;;;5.40;;
5606;SDS011;2825;53.116;9.392;2022-09-27T07:20:33;12.60;;;5.60;;
5606;SDS011;2825;53.116;9.392;2022-09-27T07:23:07;10.47;;;6.20;;
5606;SDS011;2825;53.116;9.392;2022-09-27T07:25:34;6.13;;;5.60;;
5606;SDS011;2825;53.116;9.392;2022-09-27T07:28:01;6.40;;;5.80;;
5606;SDS011;2825;53.116;9.392;2022-09-27T07:30:27;11.53;;;6.73;;
5606;SDS011;2825;53.116;9.392;2022-09-27T07:33:00;9.60;;;6.00;;
5606;SDS011;2825;53.116;9.392;2022-09-27T07:35:28;8.20;;;6.57;;
5606;SDS011;2825;53.116;9.392;2022-09-27T07:37:54;7.50;;;6.40;;
5606;SDS011;2825;53.116;9.392;2022-09-27T07:40:21;6.57;;;5.90;;
5606;SDS011;2825;53.116;9.392;2022-09-27T07:42:46;6.87;;;6.20;;
5606;SDS011;2825;53.116;9.392;2022-09-27T07:45:18;8.90;;;6.50;;
5606;SDS011;2825;53.116;9.392;2022-09-27T07:47:44;13.17;;;6.60;;
5606;SDS011;2825;53.116;9.392;2022-09-27T07:50:09;6.83;;;6.23;;
5606;SDS011;2825;53.116;9.392;2022-09-27T07:52:39;10.17;;;6.40;;
5606;SDS011;2825;53.116;9.392;2022-09-27T07:55:06;9.07;;;6.67;;
5606;SDS011;2825;53.116;9.392;2022-09-27T07:57:36;9.47;;;7.20;;
5606;SDS011;2825;53.116;9.392;2022-09-27T08:00:03;8.20;;;6.67;;
5606;SDS011;2825;53.116;9.392;2022-09-27T08:02:33;10.93;;;7.03;;
5606;SDS011;2825;53.116;9.392;2022-09-27T08:04:58;8.07;;;7.27;;
5606;SDS011;2825;53.116;9.392;2022-09-27T08:07:25;8.80;;;7.63;;
5606;SDS011;2825;53.116;9.392;2022-09-27T08:09:51;8.10;;;7.30;;
5606;SDS011;2825;53.116;9.392;2022-09-27T08:12:17;10.90;;;7.60;;
5606;SDS011;2825;53.116;9.392;2022-09-27T08:14:45;9.23;;;8.43;;
5606;SDS011;2825;53.116;9.392;2022-09-27T08:17:11;7.70;;;7.00;;
5606;SDS011;2825;53.116;9.392;2022-09-27T08:19:37;7.67;;;6.73;;
5606;SDS011;2825;53.116;9.392;2022-09-27T08:22:04;7.17;;;6.50;;
5606;SDS011;2825;53.116;9.392;2022-09-27T08:24:31;8.10;;;6.67;;
5606;SDS011;2825;53.116;9.392;2022-09-27T08:26:57;9.20;;;6.70;;
5606;SDS011;2825;53.116;9.392;2022-09-27T08:29:23;9.07;;;6.90;;
5606;SDS011;2825;53.116;9.392;2022-09-27T08:31:51;8.00;;;7.10;;
5606;SDS011;2825;53.116;9.392;2022-09-27T08:34:21;14.90;;;9.00;;
5606;SDS011;2825;53.116;9.392;2022-09-27T08:36:47;6.93;;;6.33;;
5606;SDS011;2825;53.116;9.392;2022-09-27T08:39:13;6.03;;;5.43;;
5606;SDS011;2825;53.116;9.392;2022-09-27T08:52:11;4.67;;;4.20;;
5606;SDS011;2825;53.116;9.392;2022-09-27T08:54:42;4.50;;;3.90;;
5606;SDS011;2825;53.116;9.392;2022-09-27T08:57:10;5.77;;;4.30;;
5606;SDS011;2825;53.116;9.392;2022-09-27T08:59:40;7.03;;;5.57;;
5606;SDS011;2825;53.116;9.392;2022-09-27T09:02:17;5.37;;;4.87;;
5606;SDS011;2825;53.116;9.392;2022-09-27T09:04:45;5.23;;;4.73;;
5606;SDS011;2825;53.116;9.392;2022-09-27T09:07:34;9.43;;;5.33;;
5606;SDS011;2825;53.116;9.392;2022-09-27T09:13:15;6.23;;;4.83;;
5606;SDS011;2825;53.116;9.392;2022-09-27T09:21:13;6.20;;;3.87;;
5606;SDS011;2825;53.116;9.392;2022-09-27T09:35:36;5.03;;;4.47;;
5606;SDS011;2825;53.116;9.392;2022-09-27T09:41:17;6.87;;;4.13;;
5606;SDS011;2825;53.116;9.392;2022-09-27T09:43:55;7.77;;;4.17;;
5606;SDS011;2825;53.116;9.392;2022-09-27T09:46:42;4.90;;;4.50;;
5606;SDS011;2825;53.116;9.392;2022-09-27T09:49:23;6.57;;;3.50;;
5606;SDS011;2825;53.116;9.392;2022-09-27T09:51:55;4.40;;;4.00;;
5606;SDS011;2825;53.116;9.392;2022-09-27T09:54:31;4.60;;;4.20;;
5606;SDS011;2825;53.116;9.392;2022-09-27T09:57:02;6.07;;;3.40;;
5606;SDS011;2825;53.116;9.392;2022-09-27T10:02:18;3.97;;;3.67;;
5606;SDS011;2825;53.116;9.392;2022-09-27T10:04:46;3.83;;;3.27;;
5606;SDS011;2825;53.116;9.392;2022-09-27T10:07:11;3.73;;;3.43;;
5606;SDS011;2825;53.116;9.392;2022-09-27T10:09:40;8.17;;;3.93;;
5606;SDS011;2825;53.116;9.392;2022-09-27T10:12:06;4.17;;;3.67;;
5606;SDS011;2825;53.116;9.392;2022-09-27T10:14:33;3.03;;;2.13;;
5606;SDS011;2825;53.116;9.392;2022-09-27T10:16:59;3.20;;;2.27;;
5606;SDS011;2825;53.116;9.392;2022-09-27T10:19:28;3.10;;;1.77;;
5606;SDS011;2825;53.116;9.392;2022-09-27T10:22:01;3.50;;;1.37;;
5606;SDS011;2825;53.116;9.392;2022-09-27T10:30:28;2.13;;;1.33;;
5606;SDS011;2825;53.116;9.392;2022-09-27T10:32:59;2.10;;;1.83;;
5606;SDS011;2825;53.116;9.392;2022-09-27T10:35:42;2.67;;;1.73;;
5606;SDS011;2825;53.116;9.392;2022-09-27T10:41:30;3.00;;;1.80;;
5606;SDS011;2825;53.116;9.392;2022-09-27T10:43:56;2.50;;;1.60;;
5606;SDS011;2825;53.116;9.392;2022-09-27T10:46:29;2.00;;;1.50;;
5606;SDS011;2825;53.116;9.392;2022-09-27T10:52:02;1.10;;;1.00;;
5606;SDS011;2825;53.116;9.392;2022-09-27T10:54:32;3.57;;;1.30;;
5606;SDS011;2825;53.116;9.392;2022-09-27T10:59:38;2.92;;;1.90;;
5606;SDS011;2825;53.116;9.392;2022-09-27T11:05:04;3.33;;;2.10;;
5606;SDS011;2825;53.116;9.392;2022-09-27T11:07:46;1.90;;;1.10;;
5606;SDS011;2825;53.116;9.392;2022-09-27T11:13:12;10.43;;;3.57;;
5606;SDS011;2825;53.116;9.392;2022-09-27T11:21:16;2.60;;;1.30;;
5606;SDS011;2825;53.116;9.392;2022-09-27T11:24:04;6.53;;;3.10;;
5606;SDS011;2825;53.116;9.392;2022-09-27T11:31:50;2.30;;;1.90;;
5606;SDS011;2825;53.116;9.392;2022-09-27T11:45:48;3.33;;;1.60;;
5606;SDS011;2825;53.116;9.392;2022-09-27T11:53:47;2.50;;;1.77;;
5606;SDS011;2825;53.116;9.392;2022-09-27T12:09:58;2.50;;;1.33;;
5606;SDS011;2825;53.116;9.392;2022-09-27T12:12:30;2.50;;;1.00;;
5606;SDS011;2825;53.116;9.392;2022-09-27T12:14:59;1.60;;;1.07;;
5606;SDS011;2825;53.116;9.392;2022-09-27T12:17:49;1.40;;;0.93;;
5606;SDS011;2825;53.116;9.392;2022-09-27T12:20:26;3.40;;;1.53;;
5606;SDS011;2825;53.116;9.392;2022-09-27T12:25:39;1.47;;;1.10;;
5606;SDS011;2825;53.116;9.392;2022-09-27T12:28:17;1.50;;;1.33;;
5606;SDS011;2825;53.116;9.392;2022-09-27T12:30:49;6.37;;;2.20;;
5606;SDS011;2825;53.116;9.392;2022-09-27T12:33:32;1.60;;;1.50;;
5606;SDS011;2825;53.116;9.392;2022-09-27T12:36:15;5.10;;;1.80;;
5606;SDS011;2825;53.116;9.392;2022-09-27T12:41:38;2.90;;;2.60;;
5606;SDS011;2825;53.116;9.392;2022-09-27T12:44:09;2.60;;;2.40;;
5606;SDS011;2825;53.116;9.392;2022-09-27T12:52:00;3.50;;;3.20;;
5606;SDS011;2825;53.116;9.392;2022-09-27T13:03:00;3.97;;;3.60;;
5606;SDS011;2825;53.116;9.392;2022-09-27T13:13:55;4.67;;;4.27;;
5606;SDS011;2825;53.116;9.392;2022-09-27T13:16:23;6.37;;;4.73;;
5606;SDS011;2825;53.116;9.392;2022-09-27T13:18:51;5.20;;;4.17;;
5606;SDS011;2825;53.116;9.392;2022-09-27T13:30:42;8.40;;;5.07;;
5606;SDS011;2825;53.116;9.392;2022-09-27T13:35:34;7.33;;;4.40;;
5606;SDS011;2825;53.116;9.392;2022-09-27T13:38:00;6.47;;;4.77;;
5606;SDS011;2825;53.116;9.392;2022-09-27T13:40:31;5.03;;;4.50;;
5606;SDS011;2825;53.116;9.392;2022-09-27T13:45:27;5.63;;;4.13;;
5606;SDS011;2825;53.116;9.392;2022-09-27T13:47:59;7.33;;;3.83;;
5606;SDS011;2825;53.116;9.392;2022-09-27T13:50:37;4.10;;;3.70;;
5606;SDS011;2825;53.116;9.392;2022-09-27T13:55:50;4.13;;;3.77;;
5606;SDS011;2825;53.116;9.392;2022-09-27T14:01:15;3.40;;;3.10;;
5606;SDS011;2825;53.116;9.392;2022-09-27T14:03:52;3.50;;;3.00;;
5606;SDS011;2825;53.116;9.392;2022-09-27T14:06:25;4.73;;;3.27;;
5606;SDS011;2825;53.116;9.392;2022-09-27T14:09:00;3.33;;;3.13;;
5606;SDS011;2825;53.116;9.392;2022-09-27T14:14:03;6.33;;;3.00;;
5606;SDS011;2825;53.116;9.392;2022-09-27T14:16:33;2.90;;;2.70;;
5606;SDS011;2825;53.116;9.392;2022-09-27T14:19:04;2.60;;;2.40;;
5606;SDS011;2825;53.116;9.392;2022-09-27T14:21:40;8.23;;;2.27;;
5606;SDS011;2825;53.116;9.392;2022-09-27T14:29:54;3.23;;;3.00;;
5606;SDS011;2825;53.116;9.392;2022-09-27T14:32:29;2.70;;;2.47;;
5606;SDS011;2825;53.116;9.392;2022-09-27T14:35:18;3.00;;;1.90;;
5606;SDS011;2825;53.116;9.392;2022-09-27T14:38:03;10.80;;;2.80;;
5606;SDS011;2825;53.116;9.392;2022-09-27T14:40:34;2.17;;;1.90;;
5606;SDS011;2825;53.116;9.392;2022-09-27T14:43:26;5.73;;;1.70;;
5606;SDS011;2825;53.116;9.392;2022-09-27T14:45:57;3.53;;;2.07;;
5606;SDS011;2825;53.116;9.392;2022-09-27T14:48:29;3.00;;;2.00;;
5606;SDS011;2825;53.116;9.392;2022-09-27T14:50:58;1.80;;;1.70;;
5606;SDS011;2825;53.116;9.392;2022-09-27T14:56:14;11.00;;;2.30;;
5606;SDS011;2825;53.116;9.392;2022-09-27T14:58:53;3.37;;;2.07;;
5606;SDS011;2825;53.116;9.392;2022-09-27T15:01:26;7.43;;;2.00;;
5606;SDS011;2825;53.116;9.392;2022-09-27T15:03:53;3.40;;;2.60;;
5606;SDS011;2825;53.116;9.392;2022-09-27T15:06:19;2.50;;;2.30;;
5606;SDS011;2825;53.116;9.392;2022-09-27T15:08:46;6.60;;;2.67;;
5606;SDS011;2825;53.116;9.392;2022-09-27T15:11:14;3.63;;;1.63;;
5606;SDS011;2825;53.116;9.392;2022-09-27T15:13:41;2.13;;;2.03;;
5606;SDS011;2825;53.116;9.392;2022-09-27T15:16:10;5.63;;;2.40;;
5606;SDS011;2825;53.116;9.392;2022-09-27T15:18:44;1.50;;;1.40;;
5606;SDS011;2825;53.116;9.392;2022-09-27T15:21:34;1.77;;;1.13;;
5606;SDS011;2825;53.116;9.392;2022-09-27T15:23:59;1.80;;;1.33;;
5606;SDS011;2825;53.116;9.392;2022-09-27T15:26:39;3.37;;;2.43;;
5606;SDS011;2825;53.116;9.392;2022-09-27T15:29:20;1.87;;;1.00;;
5606;SDS011;2825;53.116;9.392;2022-09-27T15:32:03;2.10;;;1.17;;
5606;SDS011;2825;53.116;9.392;2022-09-27T15:34:31;2.70;;;1.10;;
5606;SDS011;2825;53.116;9.392;2022-09-27T15:37:01;0.90;;;0.80;;
5606;SDS011;2825;53.116;9.392;2022-09-27T15:39:32;2.03;;;1.33;;
5606;SDS011;2825;53.116;9.392;2022-09-27T15:55:19;3.00;;;1.70;;
5606;SDS011;2825;53.116;9.392;2022-09-27T16:00:23;1.20;;;1.10;;
5606;SDS011;2825;53.116;9.392;2022-09-27T16:02:50;3.60;;;2.07;;
5606;SDS011;2825;53.116;9.392;2022-09-27T16:05:16;1.23;;;1.13;;
5606;SDS011;2825;53.116;9.392;2022-09-27T16:07:42;1.37;;;0.97;;
5606;SDS011;2825;53.116;9.392;2022-09-27T16:10:18;1.40;;;0.80;;
5606;SDS011;2825;53.116;9.392;2022-09-27T16:12:46;1.43;;;0.70;;
5606;SDS011;2825;53.116;9.392;2022-09-27T16:15:12;1.27;;;0.93;;
5606;SDS011;2825;53.116;9.392;2022-09-27T16:17:39;2.80;;;1.00;;
5606;SDS011;2825;53.116;9.392;2022-09-27T16:20:08;2.30;;;2.10;;
5606;SDS011;2825;53.116;9.392;2022-09-27T16:22:44;1.17;;;1.07;;
5606;SDS011;2825;53.116;9.392;2022-09-27T16:25:09;3.77;;;2.00;;
5606;SDS011;2825;53.116;9.392;2022-09-27T16:27:35;1.20;;;1.10;;
5606;SDS011;2825;53.116;9.392;2022-09-27T16:30:01;2.17;;;1.10;;
5606;SDS011;2825;53.116;9.392;2022-09-27T16:32:27;3.13;;;1.00;;
5606;SDS011;2825;53.116;9.392;2022-09-27T16:34:53;1.70;;;1.17;;
5606;SDS011;2825;53.116;9.392;2022-09-27T16:37:19;1.30;;;1.20;;
5606;SDS011;2825;53.116;9.392;2022-09-27T16:39:44;4.83;;;1.20;;
5606;SDS011;2825;53.116;9.392;2022-09-27T16:42:10;2.30;;;1.37;;
5606;SDS011;2825;53.116;9.392;2022-09-27T16:44:36;1.20;;;1.10;;
5606;SDS011;2825;53.116;9.392;2022-09-27T16:47:02;0.90;;;0.70;;
5606;SDS011;2825;53.116;9.392;2022-09-27T16:49:28;1.83;;;1.33;;
5606;SDS011;2825;53.116;9.392;2022-09-27T16:52:12;2.20;;;0.87;;
5606;SDS011;2825;53.116;9.392;2022-09-27T16:54:40;2.67;;;1.00;;
5606;SDS011;2825;53.116;9.392;2022-09-27T16:57:06;1.50;;;1.10;;
5606;SDS011;2825;53.116;9.392;2022-09-27T16:59:32;3.10;;;1.40;;
5606;SDS011;2825;53.116;9.392;2022-09-27T17:01:57;1.30;;;0.90;;
5606;SDS011;2825;53.116;9.392;2022-09-27T17:04:24;0.97;;;0.87;;
5606;SDS011;2825;53.116;9.392;2022-09-27T17:06:51;1.60;;;1.20;;
5606;SDS011;2825;53.116;9.392;2022-09-27T17:09:18;1.43;;;1.33;;
5606;SDS011;2825;53.116;9.392;2022-09-27T17:11:44;1.77;;;1.23;;
5606;SDS011;2825;53.116;9.392;2022-09-27T17:14:10;2.30;;;1.43;;
5606;SDS011;2825;53.116;9.392;2022-09-27T17:16:40;7.40;;;2.00;;
5606;SDS011;2825;53.116;9.392;2022-09-27T17:19:10;5.00;;;2.33;;
5606;SDS011;2825;53.116;9.392;2022-09-27T17:21:35;2.50;;;2.03;;
5606;SDS011;2825;53.116;9.392;2022-09-27T17:24:01;1.73;;;1.53;;
5606;SDS011;2825;53.116;9.392;2022-09-27T17:26:27;5.93;;;1.63;;
5606;SDS011;2825;53.116;9.392;2022-09-27T17:28:56;1.60;;;1.50;;
5606;SDS011;2825;53.116;9.392;2022-09-27T17:31:22;1.77;;;1.60;;
5606;SDS011;2825;53.116;9.392;2022-09-27T17:33:49;2.90;;;1.80;;
5606;SDS011;2825;53.116;9.392;2022-09-27T17:36:20;3.40;;;2.37;;
5606;SDS011;2825;53.116;9.392;2022-09-27T17:38:48;4.03;;;3.30;;
5606;SDS011;2825;53.116;9.392;2022-09-27T17:41:16;4.90;;;4.40;;
5606;SDS011;2825;53.116;9.392;2022-09-27T17:43:54;7.50;;;5.63;;
5606;SDS011;2825;53.116;9.392;2022-09-27T17:46:22;5.77;;;3.87;;
5606;SDS011;2825;53.116;9.392;2022-09-27T17:48:53;6.73;;;4.00;;
5606;SDS011;2825;53.116;9.392;2022-09-27T17:51:38;10.00;;;3.27;;
5606;SDS011;2825;53.116;9.392;2022-09-27T17:54:05;4.40;;;3.60;;
5606;SDS011;2825;53.116;9.392;2022-09-27T17:56:34;6.70;;;3.70;;
5606;SDS011;2825;53.116;9.392;2022-09-27T17:59:01;4.13;;;3.73;;
5606;SDS011;2825;53.116;9.392;2022-09-27T18:01:27;3.73;;;3.13;;
5606;SDS011;2825;53.116;9.392;2022-09-27T18:03:56;6.80;;;3.20;;
5606;SDS011;2825;53.116;9.392;2022-09-27T18:06:24;3.73;;;3.40;;
5606;SDS011;2825;53.116;9.392;2022-09-27T18:08:50;4.07;;;2.47;;
5606;SDS011;2825;53.116;9.392;2022-09-27T18:11:18;3.53;;;2.70;;
5606;SDS011;2825;53.116;9.392;2022-09-27T18:13:56;5.00;;;2.90;;
5606;SDS011;2825;53.116;9.392;2022-09-27T18:16:24;4.17;;;3.73;;
5606;SDS011;2825;53.116;9.392;2022-09-27T18:18:57;4.47;;;3.20;;
5606;SDS011;2825;53.116;9.392;2022-09-27T18:21:24;4.10;;;3.60;;
5606;SDS011;2825;53.116;9.392;2022-09-27T18:23:52;4.00;;;3.10;;
5606;SDS011;2825;53.116;9.392;2022-09-27T18:26:20;3.20;;;2.90;;
5606;SDS011;2825;53.116;9.392;2022-09-27T18:28:48;5.30;;;3.70;;
5606;SDS011;2825;53.116;9.392;2022-09-27T18:31:16;4.30;;;4.00;;
5606;SDS011;2825;53.116;9.392;2022-09-27T18:33:43;5.13;;;4.63;;
5606;SDS011;2825;53.116;9.392;2022-09-27T18:38:45;4.03;;;3.60;;
5606;SDS011;2825;53.116;9.392;2022-09-27T18:41:16;3.43;;;3.17;;
5606;SDS011;2825;53.116;9.392;2022-09-27T18:43:43;5.10;;;4.67;;
5606;SDS011;2825;53.116;9.392;2022-09-27T18:46:14;6.93;;;5.80;;
5606;SDS011;2825;53.116;9.392;2022-09-27T18:48:41;12.33;;;3.80;;
5606;SDS011;2825;53.116;9.392;2022-09-27T18:51:07;7.47;;;3.07;;
5606;SDS011;2825;53.116;9.392;2022-09-27T18:53:36;7.93;;;2.70;;
5606;SDS011;2825;53.116;9.392;2022-09-27T18:56:05;3.13;;;2.13;;
5606;SDS011;2825;53.116;9.392;2022-09-27T18:58:36;2.03;;;1.83;;
5606;SDS011;2825;53.116;9.392;2022-09-27T19:01:03;2.03;;;1.60;;